sensor_id;sensor_type;location;lat;lon;timestamp;temperature;humidity
36212;DHT22;22247;48.586;13.492;2022-09-09T00:01:03;12.80;99.90
36212;DHT22;22247;48.586;13.492;2022-09-09T00:03:47;12.70;99.90
36212;DHT22;22247;48.586;13.492;2022-09-09T00:17:39;12.70;99.90
36212;DHT22;22247;48.586;13.492;2022-09-09T00:20:16;12.70;99.90
36212;DHT22;22247;48.586;13.492;2022-09-09T00:22:53;12.70;99.90
36212;DHT22;22247;48.586;13.492;2022-09-09T00:25:29;12.60;99.90
36212;DHT22;22247;48.586;13.492;2022-09-09T00:27:59;12.60;99.90
36212;DHT22;22247;48.586;13.492;2022-09-09T00:30:34;12.60;99.90
36212;DHT22;22247;48.586;13.492;2022-09-09T00:33:11;12.60;99.90
36212;DHT22;22247;48.586;13.492;2022-09-09T00:35:48;12.60;99.90
36212;DHT22;22247;48.586;13.492;2022-09-09T00:43:36;12.70;99.90
36212;DHT22;22247;48.586;13.492;2022-09-09T00:52:01;12.50;99.90
36212;DHT22;22247;48.586;13.492;2022-09-09T00:54:49;12.40;99.90
36212;DHT22;22247;48.586;13.492;2022-09-09T00:57:33;12.40;99.90
36212;DHT22;22247;48.586;13.492;2022-09-09T01:08:31;12.30;99.90
36212;DHT22;22247;48.586;13.492;2022-09-09T01:11:03;12.30;99.90
36212;DHT22;22247;48.586;13.492;2022-09-09T01:13:34;12.20;99.90
36212;DHT22;22247;48.586;13.492;2022-09-09T01:16:04;12.20;99.90
36212;DHT22;22247;48.586;13.492;2022-09-09T01:18:36;12.10;99.90
36212;DHT22;22247;48.586;13.492;2022-09-09T01:24:08;12.10;99.90
36212;DHT22;22247;48.586;13.492;2022-09-09T01:26:41;12.00;99.90
36212;DHT22;22247;48.586;13.492;2022-09-09T01:29:12;12.00;99.90
36212;DHT22;22247;48.586;13.492;2022-09-09T01:31:59;11.90;99.90
36212;DHT22;22247;48.586;13.492;2022-09-09T01:34:36;12.20;99.90
36212;DHT22;22247;48.586;13.492;2022-09-09T01:37:10;11.70;99.90
36212;DHT22;22247;48.586;13.492;2022-09-09T01:39:39;11.70;99.90
36212;DHT22;22247;48.586;13.492;2022-09-09T01:42:09;11.80;99.90
36212;DHT22;22247;48.586;13.492;2022-09-09T01:44:38;11.80;99.90
36212;DHT22;22247;48.586;13.492;2022-09-09T01:47:08;11.80;99.90
36212;DHT22;22247;48.586;13.492;2022-09-09T01:49:36;11.90;99.90
36212;DHT22;22247;48.586;13.492;2022-09-09T01:52:02;11.90;99.90
36212;DHT22;22247;48.586;13.492;2022-09-09T01:54:30;11.90;99.90
36212;DHT22;22247;48.586;13.492;2022-09-09T02:03:18;11.90;99.90
36212;DHT22;22247;48.586;13.492;2022-09-09T02:08:24;11.80;99.90
36212;DHT22;22247;48.586;13.492;2022-09-09T02:13:32;11.90;99.90
36212;DHT22;22247;48.586;13.492;2022-09-09T02:16:30;11.90;99.90
36212;DHT22;22247;48.586;13.492;2022-09-09T02:21:30;11.90;99.90
36212;DHT22;22247;48.586;13.492;2022-09-09T02:24:04;12.40;99.90
36212;DHT22;22247;48.586;13.492;2022-09-09T02:26:37;11.90;99.90
36212;DHT22;22247;48.586;13.492;2022-09-09T02:29:14;11.90;99.90
36212;DHT22;22247;48.586;13.492;2022-09-09T02:31:42;12.00;99.90
36212;DHT22;22247;48.586;13.492;2022-09-09T02:34:10;12.00;99.90
36212;DHT22;22247;48.586;13.492;2022-09-09T02:36:41;12.00;99.90
36212;DHT22;22247;48.586;13.492;2022-09-09T02:39:09;11.90;99.90
36212;DHT22;22247;48.586;13.492;2022-09-09T02:41:41;12.00;99.90
36212;DHT22;22247;48.586;13.492;2022-09-09T02:44:17;12.00;99.90
36212;DHT22;22247;48.586;13.492;2022-09-09T02:47:07;12.00;99.90
36212;DHT22;22247;48.586;13.492;2022-09-09T02:53:02;11.90;99.90
36212;DHT22;22247;48.586;13.492;2022-09-09T02:58:21;11.80;99.90
36212;DHT22;22247;48.586;13.492;2022-09-09T03:00:49;11.80;99.90
36212;DHT22;22247;48.586;13.492;2022-09-09T03:03:16;11.80;99.90
36212;DHT22;22247;48.586;13.492;2022-09-09T03:05:45;11.80;99.90
36212;DHT22;22247;48.586;13.492;2022-09-09T03:08:11;11.70;99.90
36212;DHT22;22247;48.586;13.492;2022-09-09T03:10:40;11.90;99.90
36212;DHT22;22247;48.586;13.492;2022-09-09T03:13:10;12.50;99.90
36212;DHT22;22247;48.586;13.492;2022-09-09T03:15:40;12.00;99.90
36212;DHT22;22247;48.586;13.492;2022-09-09T03:18:06;12.10;99.90
36212;DHT22;22247;48.586;13.492;2022-09-09T03:20:34;12.20;99.90
36212;DHT22;22247;48.586;13.492;2022-09-09T03:23:02;12.20;99.90
36212;DHT22;22247;48.586;13.492;2022-09-09T03:25:27;12.30;99.90
36212;DHT22;22247;48.586;13.492;2022-09-09T03:27:54;12.30;99.90
36212;DHT22;22247;48.586;13.492;2022-09-09T03:30:27;12.30;99.90
36212;DHT22;22247;48.586;13.492;2022-09-09T03:32:53;12.40;99.90
36212;DHT22;22247;48.586;13.492;2022-09-09T03:35:21;12.40;99.90
36212;DHT22;22247;48.586;13.492;2022-09-09T03:37:47;12.40;99.90
36212;DHT22;22247;48.586;13.492;2022-09-09T03:40:15;12.40;99.90
36212;DHT22;22247;48.586;13.492;2022-09-09T03:45:09;12.30;99.90
36212;DHT22;22247;48.586;13.492;2022-09-09T03:47:36;12.30;99.90
36212;DHT22;22247;48.586;13.492;2022-09-09T03:50:02;12.80;99.90
36212;DHT22;22247;48.586;13.492;2022-09-09T03:52:35;12.50;99.90
36212;DHT22;22247;48.586;13.492;2022-09-09T03:55:00;12.50;99.90
36212;DHT22;22247;48.586;13.492;2022-09-09T03:57:26;13.00;99.90
36212;DHT22;22247;48.586;13.492;2022-09-09T03:59:57;12.50;99.90
36212;DHT22;22247;48.586;13.492;2022-09-09T04:02:26;12.60;99.90
36212;DHT22;22247;48.586;13.492;2022-09-09T04:04:54;12.40;99.90
36212;DHT22;22247;48.586;13.492;2022-09-09T04:07:22;12.50;99.90
36212;DHT22;22247;48.586;13.492;2022-09-09T04:09:48;12.50;99.90
36212;DHT22;22247;48.586;13.492;2022-09-09T04:12:16;12.40;99.90
36212;DHT22;22247;48.586;13.492;2022-09-09T04:14:46;12.40;99.90
36212;DHT22;22247;48.586;13.492;2022-09-09T04:17:12;12.50;99.90
36212;DHT22;22247;48.586;13.492;2022-09-09T04:19:37;12.30;99.90
36212;DHT22;22247;48.586;13.492;2022-09-09T04:22:03;12.30;99.90
36212;DHT22;22247;48.586;13.492;2022-09-09T04:24:33;12.30;99.90
36212;DHT22;22247;48.586;13.492;2022-09-09T04:27:00;12.30;99.90
36212;DHT22;22247;48.586;13.492;2022-09-09T04:29:26;12.30;99.90
36212;DHT22;22247;48.586;13.492;2022-09-09T04:34:20;12.30;99.90
36212;DHT22;22247;48.586;13.492;2022-09-09T04:36:48;12.00;99.90
36212;DHT22;22247;48.586;13.492;2022-09-09T04:39:14;12.30;99.90
36212;DHT22;22247;48.586;13.492;2022-09-09T04:41:39;12.40;99.90
36212;DHT22;22247;48.586;13.492;2022-09-09T04:44:11;12.40;99.90
36212;DHT22;22247;48.586;13.492;2022-09-09T04:46:36;12.40;99.90
36212;DHT22;22247;48.586;13.492;2022-09-09T04:49:06;12.60;99.90
36212;DHT22;22247;48.586;13.492;2022-09-09T04:51:35;12.40;99.90
36212;DHT22;22247;48.586;13.492;2022-09-09T04:54:03;12.40;99.90
36212;DHT22;22247;48.586;13.492;2022-09-09T04:56:30;12.40;99.90
36212;DHT22;22247;48.586;13.492;2022-09-09T04:58:56;12.50;99.90
36212;DHT22;22247;48.586;13.492;2022-09-09T05:01:24;12.50;99.90
36212;DHT22;22247;48.586;13.492;2022-09-09T05:03:53;12.50;99.90
36212;DHT22;22247;48.586;13.492;2022-09-09T05:06:22;12.50;99.90
36212;DHT22;22247;48.586;13.492;2022-09-09T05:08:50;12.50;99.90
36212;DHT22;22247;48.586;13.492;2022-09-09T05:11:19;12.60;99.90
36212;DHT22;22247;48.586;13.492;2022-09-09T05:13:46;12.50;99.90
36212;DHT22;22247;48.586;13.492;2022-09-09T05:16:16;12.70;99.90
36212;DHT22;22247;48.586;13.492;2022-09-09T05:18:42;12.50;99.90
36212;DHT22;22247;48.586;13.492;2022-09-09T05:21:09;12.50;99.90
36212;DHT22;22247;48.586;13.492;2022-09-09T05:23:37;12.50;99.90
36212;DHT22;22247;48.586;13.492;2022-09-09T05:26:03;12.50;99.90
36212;DHT22;22247;48.586;13.492;2022-09-09T05:28:34;12.80;99.90
36212;DHT22;22247;48.586;13.492;2022-09-09T05:31:06;12.60;99.90
36212;DHT22;22247;48.586;13.492;2022-09-09T05:33:34;12.50;99.90
36212;DHT22;22247;48.586;13.492;2022-09-09T05:36:20;12.50;99.90
36212;DHT22;22247;48.586;13.492;2022-09-09T05:41:36;12.60;99.90
36212;DHT22;22247;48.586;13.492;2022-09-09T05:46:31;12.50;99.90
36212;DHT22;22247;48.586;13.492;2022-09-09T05:49:02;12.50;99.90
36212;DHT22;22247;48.586;13.492;2022-09-09T05:53:57;12.30;99.90
36212;DHT22;22247;48.586;13.492;2022-09-09T05:56:27;13.20;99.90
36212;DHT22;22247;48.586;13.492;2022-09-09T05:58:56;12.90;99.90
36212;DHT22;22247;48.586;13.492;2022-09-09T06:03:52;12.80;99.90
36212;DHT22;22247;48.586;13.492;2022-09-09T06:06:26;12.80;99.90
36212;DHT22;22247;48.586;13.492;2022-09-09T06:08:55;12.80;99.90
36212;DHT22;22247;48.586;13.492;2022-09-09T06:11:28;12.90;99.90
36212;DHT22;22247;48.586;13.492;2022-09-09T06:14:00;13.20;99.90
36212;DHT22;22247;48.586;13.492;2022-09-09T06:16:27;13.20;99.90
36212;DHT22;22247;48.586;13.492;2022-09-09T06:18:54;13.30;99.90
36212;DHT22;22247;48.586;13.492;2022-09-09T06:21:24;13.10;99.90
36212;DHT22;22247;48.586;13.492;2022-09-09T06:23:50;13.10;99.90
36212;DHT22;22247;48.586;13.492;2022-09-09T06:26:20;13.20;99.90
36212;DHT22;22247;48.586;13.492;2022-09-09T06:28:49;13.20;99.90
36212;DHT22;22247;48.586;13.492;2022-09-09T06:31:17;13.30;99.90
36212;DHT22;22247;48.586;13.492;2022-09-09T06:33:43;13.20;99.90
36212;DHT22;22247;48.586;13.492;2022-09-09T06:36:19;13.40;99.90
36212;DHT22;22247;48.586;13.492;2022-09-09T06:38:47;13.40;99.90
36212;DHT22;22247;48.586;13.492;2022-09-09T06:41:15;13.40;99.90
36212;DHT22;22247;48.586;13.492;2022-09-09T06:43:41;13.40;99.90
36212;DHT22;22247;48.586;13.492;2022-09-09T06:46:13;13.50;99.90
36212;DHT22;22247;48.586;13.492;2022-09-09T06:48:40;13.50;99.90
36212;DHT22;22247;48.586;13.492;2022-09-09T06:51:08;13.50;99.90
36212;DHT22;22247;48.586;13.492;2022-09-09T06:53:35;13.60;99.90
36212;DHT22;22247;48.586;13.492;2022-09-09T06:58:40;13.90;99.90
36212;DHT22;22247;48.586;13.492;2022-09-09T07:01:14;13.90;99.90
36212;DHT22;22247;48.586;13.492;2022-09-09T07:03:40;14.00;99.90
36212;DHT22;22247;48.586;13.492;2022-09-09T07:06:14;14.00;99.90
36212;DHT22;22247;48.586;13.492;2022-09-09T07:08:40;14.00;99.90
36212;DHT22;22247;48.586;13.492;2022-09-09T07:11:08;14.10;99.90
36212;DHT22;22247;48.586;13.492;2022-09-09T07:13:34;14.20;99.90
36212;DHT22;22247;48.586;13.492;2022-09-09T07:16:10;14.20;99.90
36212;DHT22;22247;48.586;13.492;2022-09-09T07:18:39;14.40;99.90
36212;DHT22;22247;48.586;13.492;2022-09-09T07:21:10;14.30;99.90
36212;DHT22;22247;48.586;13.492;2022-09-09T07:23:40;14.30;99.90
36212;DHT22;22247;48.586;13.492;2022-09-09T07:28:36;14.40;99.90
36212;DHT22;22247;48.586;13.492;2022-09-09T07:31:03;14.20;99.90
36212;DHT22;22247;48.586;13.492;2022-09-09T07:33:33;14.20;99.90
36212;DHT22;22247;48.586;13.492;2022-09-09T07:38:29;14.30;99.90
36212;DHT22;22247;48.586;13.492;2022-09-09T07:41:13;14.50;99.90
36212;DHT22;22247;48.586;13.492;2022-09-09T07:43:43;14.50;99.90
36212;DHT22;22247;48.586;13.492;2022-09-09T07:46:13;14.70;99.90
36212;DHT22;22247;48.586;13.492;2022-09-09T07:48:45;14.70;99.90
36212;DHT22;22247;48.586;13.492;2022-09-09T07:51:15;14.80;99.90
36212;DHT22;22247;48.586;13.492;2022-09-09T07:53:45;14.80;99.90
36212;DHT22;22247;48.586;13.492;2022-09-09T07:56:15;14.90;99.90
36212;DHT22;22247;48.586;13.492;2022-09-09T07:58:47;14.90;99.90
36212;DHT22;22247;48.586;13.492;2022-09-09T08:03:46;15.10;99.90
36212;DHT22;22247;48.586;13.492;2022-09-09T08:06:13;15.20;99.90
36212;DHT22;22247;48.586;13.492;2022-09-09T08:08:41;15.10;99.90
36212;DHT22;22247;48.586;13.492;2022-09-09T08:11:12;15.20;99.90
36212;DHT22;22247;48.586;13.492;2022-09-09T08:13:38;15.30;99.90
36212;DHT22;22247;48.586;13.492;2022-09-09T08:18:34;15.40;99.90
36212;DHT22;22247;48.586;13.492;2022-09-09T08:21:16;15.40;99.90
36212;DHT22;22247;48.586;13.492;2022-09-09T08:23:49;15.40;99.90
36212;DHT22;22247;48.586;13.492;2022-09-09T08:26:45;15.30;99.90
36212;DHT22;22247;48.586;13.492;2022-09-09T08:29:14;15.30;99.90
36212;DHT22;22247;48.586;13.492;2022-09-09T08:31:46;15.30;99.90
36212;DHT22;22247;48.586;13.492;2022-09-09T08:34:15;15.40;99.90
36212;DHT22;22247;48.586;13.492;2022-09-09T08:36:44;15.50;99.90
36212;DHT22;22247;48.586;13.492;2022-09-09T08:39:12;15.70;99.90
36212;DHT22;22247;48.586;13.492;2022-09-09T08:55:22;16.30;99.90
36212;DHT22;22247;48.586;13.492;2022-09-09T08:57:54;16.30;99.90
36212;DHT22;22247;48.586;13.492;2022-09-09T09:00:30;16.50;99.90
36212;DHT22;22247;48.586;13.492;2022-09-09T09:08:35;16.60;99.90
36212;DHT22;22247;48.586;13.492;2022-09-09T09:11:04;16.60;99.90
36212;DHT22;22247;48.586;13.492;2022-09-09T09:16:11;16.70;99.90
36212;DHT22;22247;48.586;13.492;2022-09-09T09:18:39;16.90;99.90
36212;DHT22;22247;48.586;13.492;2022-09-09T09:23:48;17.10;99.90
36212;DHT22;22247;48.586;13.492;2022-09-09T09:26:19;17.10;99.90
36212;DHT22;22247;48.586;13.492;2022-09-09T09:28:47;17.00;99.90
36212;DHT22;22247;48.586;13.492;2022-09-09T09:31:15;16.90;99.90
36212;DHT22;22247;48.586;13.492;2022-09-09T09:33:47;16.90;99.90
36212;DHT22;22247;48.586;13.492;2022-09-09T09:36:16;16.80;99.90
36212;DHT22;22247;48.586;13.492;2022-09-09T09:38:55;16.80;99.90
36212;DHT22;22247;48.586;13.492;2022-09-09T09:44:04;16.80;99.90
36212;DHT22;22247;48.586;13.492;2022-09-09T09:46:30;16.80;99.90
36212;DHT22;22247;48.586;13.492;2022-09-09T09:49:02;16.90;99.90
36212;DHT22;22247;48.586;13.492;2022-09-09T09:51:31;16.90;99.90
36212;DHT22;22247;48.586;13.492;2022-09-09T09:54:27;16.90;99.90
36212;DHT22;22247;48.586;13.492;2022-09-09T09:59:43;17.40;99.90
36212;DHT22;22247;48.586;13.492;2022-09-09T10:02:20;17.70;99.90
36212;DHT22;22247;48.586;13.492;2022-09-09T10:04:48;17.60;99.90
36212;DHT22;22247;48.586;13.492;2022-09-09T10:07:19;17.70;99.90
36212;DHT22;22247;48.586;13.492;2022-09-09T10:09:55;17.70;99.90
36212;DHT22;22247;48.586;13.492;2022-09-09T10:12:43;17.70;99.90
36212;DHT22;22247;48.586;13.492;2022-09-09T10:15:32;17.70;99.90
36212;DHT22;22247;48.586;13.492;2022-09-09T10:31:07;17.30;99.90
36212;DHT22;22247;48.586;13.492;2022-09-09T10:38:45;16.70;99.90
36212;DHT22;22247;48.586;13.492;2022-09-09T10:41:51;16.60;99.90
36212;DHT22;22247;48.586;13.492;2022-09-09T10:55:42;16.30;99.90
36212;DHT22;22247;48.586;13.492;2022-09-09T10:58:17;16.60;99.90
36212;DHT22;22247;48.586;13.492;2022-09-09T11:00:47;16.60;99.90
36212;DHT22;22247;48.586;13.492;2022-09-09T11:03:26;16.30;99.90
36212;DHT22;22247;48.586;13.492;2022-09-09T11:06:01;16.40;99.90
36212;DHT22;22247;48.586;13.492;2022-09-09T11:08:34;16.10;99.90
36212;DHT22;22247;48.586;13.492;2022-09-09T11:11:20;16.10;99.90
36212;DHT22;22247;48.586;13.492;2022-09-09T11:16:42;16.20;99.90
36212;DHT22;22247;48.586;13.492;2022-09-09T11:19:16;15.70;99.90
36212;DHT22;22247;48.586;13.492;2022-09-09T11:21:51;15.90;99.90
36212;DHT22;22247;48.586;13.492;2022-09-09T11:24:37;15.90;99.90
36212;DHT22;22247;48.586;13.492;2022-09-09T11:40:24;15.90;99.90
36212;DHT22;22247;48.586;13.492;2022-09-09T11:43:14;15.80;99.90
36212;DHT22;22247;48.586;13.492;2022-09-09T11:45:41;15.80;99.90
36212;DHT22;22247;48.586;13.492;2022-09-09T11:48:25;15.80;99.90
36212;DHT22;22247;48.586;13.492;2022-09-09T11:53:31;16.30;99.90
36212;DHT22;22247;48.586;13.492;2022-09-09T11:56:12;15.60;99.90
36212;DHT22;22247;48.586;13.492;2022-09-09T11:58:43;15.80;99.90
36212;DHT22;22247;48.586;13.492;2022-09-09T12:01:29;15.90;99.90
36212;DHT22;22247;48.586;13.492;2022-09-09T12:06:51;16.00;99.90
36212;DHT22;22247;48.586;13.492;2022-09-09T12:10:05;16.00;99.90
36212;DHT22;22247;48.586;13.492;2022-09-09T12:12:38;15.80;99.90
36212;DHT22;22247;48.586;13.492;2022-09-09T12:30:31;15.90;99.90
36212;DHT22;22247;48.586;13.492;2022-09-09T12:33:13;16.00;99.90
36212;DHT22;22247;48.586;13.492;2022-09-09T12:35:47;16.30;99.90
36212;DHT22;22247;48.586;13.492;2022-09-09T12:38:37;16.20;99.90
36212;DHT22;22247;48.586;13.492;2022-09-09T12:41:06;16.20;99.90
36212;DHT22;22247;48.586;13.492;2022-09-09T12:43:32;16.40;99.90
36212;DHT22;22247;48.586;13.492;2022-09-09T12:46:01;16.30;99.90
36212;DHT22;22247;48.586;13.492;2022-09-09T12:48:33;16.40;99.90
36212;DHT22;22247;48.586;13.492;2022-09-09T12:51:00;16.40;99.90
36212;DHT22;22247;48.586;13.492;2022-09-09T12:53:31;16.40;99.90
36212;DHT22;22247;48.586;13.492;2022-09-09T12:56:06;16.10;99.90
36212;DHT22;22247;48.586;13.492;2022-09-09T12:58:34;16.10;99.90
36212;DHT22;22247;48.586;13.492;2022-09-09T13:01:02;16.10;99.90
36212;DHT22;22247;48.586;13.492;2022-09-09T13:03:33;16.10;99.90
36212;DHT22;22247;48.586;13.492;2022-09-09T13:06:13;16.10;99.90
36212;DHT22;22247;48.586;13.492;2022-09-09T13:08:39;16.10;99.90
36212;DHT22;22247;48.586;13.492;2022-09-09T13:11:25;15.90;99.90
36212;DHT22;22247;48.586;13.492;2022-09-09T13:13:56;16.10;99.90
36212;DHT22;22247;48.586;13.492;2022-09-09T13:16:28;16.30;99.90
36212;DHT22;22247;48.586;13.492;2022-09-09T13:19:07;16.20;99.90
36212;DHT22;22247;48.586;13.492;2022-09-09T13:21:39;16.30;99.90
36212;DHT22;22247;48.586;13.492;2022-09-09T13:24:29;16.30;99.90
36212;DHT22;22247;48.586;13.492;2022-09-09T13:27:04;16.30;99.90
36212;DHT22;22247;48.586;13.492;2022-09-09T13:29:31;16.40;99.90
36212;DHT22;22247;48.586;13.492;2022-09-09T13:32:16;16.40;99.90
36212;DHT22;22247;48.586;13.492;2022-09-09T13:34:55;16.50;99.90
36212;DHT22;22247;48.586;13.492;2022-09-09T13:37:37;16.60;99.90
36212;DHT22;22247;48.586;13.492;2022-09-09T13:40:14;16.60;99.90
36212;DHT22;22247;48.586;13.492;2022-09-09T13:42:42;16.60;99.90
36212;DHT22;22247;48.586;13.492;2022-09-09T13:45:17;16.50;99.90
36212;DHT22;22247;48.586;13.492;2022-09-09T13:47:45;16.60;99.90
36212;DHT22;22247;48.586;13.492;2022-09-09T13:50:28;16.60;99.90
36212;DHT22;22247;48.586;13.492;2022-09-09T13:52:58;16.90;99.90
36212;DHT22;22247;48.586;13.492;2022-09-09T13:55:27;17.10;99.90
36212;DHT22;22247;48.586;13.492;2022-09-09T14:00:24;17.40;99.90
36212;DHT22;22247;48.586;13.492;2022-09-09T14:02:50;17.50;99.90
36212;DHT22;22247;48.586;13.492;2022-09-09T14:05:19;17.50;99.90
36212;DHT22;22247;48.586;13.492;2022-09-09T14:07:48;17.50;99.90
36212;DHT22;22247;48.586;13.492;2022-09-09T14:10:15;17.50;99.90
36212;DHT22;22247;48.586;13.492;2022-09-09T14:15:08;17.40;99.90
36212;DHT22;22247;48.586;13.492;2022-09-09T14:17:35;17.30;99.90
36212;DHT22;22247;48.586;13.492;2022-09-09T14:20:04;17.40;99.90
36212;DHT22;22247;48.586;13.492;2022-09-09T14:22:36;17.60;99.90
36212;DHT22;22247;48.586;13.492;2022-09-09T14:25:04;17.60;99.90
36212;DHT22;22247;48.586;13.492;2022-09-09T14:27:32;17.70;99.90
36212;DHT22;22247;48.586;13.492;2022-09-09T14:32:26;17.60;99.90
36212;DHT22;22247;48.586;13.492;2022-09-09T14:34:54;17.40;99.90
36212;DHT22;22247;48.586;13.492;2022-09-09T14:37:20;17.40;99.90
36212;DHT22;22247;48.586;13.492;2022-09-09T14:39:46;17.30;99.90
36212;DHT22;22247;48.586;13.492;2022-09-09T14:42:13;17.20;99.90
36212;DHT22;22247;48.586;13.492;2022-09-09T14:47:08;17.40;99.90
36212;DHT22;22247;48.586;13.492;2022-09-09T14:49:34;17.40;99.90
36212;DHT22;22247;48.586;13.492;2022-09-09T14:52:00;17.60;99.90
36212;DHT22;22247;48.586;13.492;2022-09-09T14:54:28;17.70;99.90
36212;DHT22;22247;48.586;13.492;2022-09-09T14:56:54;17.90;99.90
36212;DHT22;22247;48.586;13.492;2022-09-09T14:59:20;18.10;99.90
36212;DHT22;22247;48.586;13.492;2022-09-09T15:01:45;18.30;99.90
36212;DHT22;22247;48.586;13.492;2022-09-09T15:04:12;19.10;99.90
36212;DHT22;22247;48.586;13.492;2022-09-09T15:06:42;19.10;99.90
36212;DHT22;22247;48.586;13.492;2022-09-09T15:09:09;19.00;99.90
36212;DHT22;22247;48.586;13.492;2022-09-09T15:11:36;18.90;99.90
36212;DHT22;22247;48.586;13.492;2022-09-09T15:14:04;18.70;99.90
36212;DHT22;22247;48.586;13.492;2022-09-09T15:16:30;18.80;99.90
36212;DHT22;22247;48.586;13.492;2022-09-09T15:18:58;18.90;99.90
36212;DHT22;22247;48.586;13.492;2022-09-09T15:21:28;18.80;99.90
36212;DHT22;22247;48.586;13.492;2022-09-09T15:23:55;18.70;99.90
36212;DHT22;22247;48.586;13.492;2022-09-09T15:26:26;18.50;99.90
36212;DHT22;22247;48.586;13.492;2022-09-09T15:28:57;18.30;99.90
36212;DHT22;22247;48.586;13.492;2022-09-09T15:31:27;18.30;99.90
36212;DHT22;22247;48.586;13.492;2022-09-09T15:34:04;18.20;99.90
36212;DHT22;22247;48.586;13.492;2022-09-09T15:36:34;18.40;99.90
36212;DHT22;22247;48.586;13.492;2022-09-09T15:39:01;18.20;99.90
36212;DHT22;22247;48.586;13.492;2022-09-09T15:41:27;18.30;99.90
36212;DHT22;22247;48.586;13.492;2022-09-09T15:43:56;18.10;99.90
36212;DHT22;22247;48.586;13.492;2022-09-09T15:48:51;19.70;99.90
36212;DHT22;22247;48.586;13.492;2022-09-09T15:51:22;21.20;99.90
36212;DHT22;22247;48.586;13.492;2022-09-09T15:53:56;21.30;99.90
36212;DHT22;22247;48.586;13.492;2022-09-09T15:56:27;21.90;99.90
36212;DHT22;22247;48.586;13.492;2022-09-09T15:58:57;21.10;99.90
36212;DHT22;22247;48.586;13.492;2022-09-09T16:01:23;20.70;99.90
36212;DHT22;22247;48.586;13.492;2022-09-09T16:03:49;20.20;99.90
36212;DHT22;22247;48.586;13.492;2022-09-09T16:06:21;19.80;99.90
36212;DHT22;22247;48.586;13.492;2022-09-09T16:08:49;19.50;99.90
36212;DHT22;22247;48.586;13.492;2022-09-09T16:11:22;18.90;99.90
36212;DHT22;22247;48.586;13.492;2022-09-09T16:13:52;19.00;99.90
36212;DHT22;22247;48.586;13.492;2022-09-09T16:16:22;18.80;99.90
36212;DHT22;22247;48.586;13.492;2022-09-09T16:19:05;18.50;99.90
36212;DHT22;22247;48.586;13.492;2022-09-09T16:21:34;18.50;99.90
36212;DHT22;22247;48.586;13.492;2022-09-09T16:24:02;18.90;99.90
36212;DHT22;22247;48.586;13.492;2022-09-09T16:26:32;18.70;99.90
36212;DHT22;22247;48.586;13.492;2022-09-09T16:28:58;19.00;99.90
36212;DHT22;22247;48.586;13.492;2022-09-09T16:31:25;20.10;99.90
36212;DHT22;22247;48.586;13.492;2022-09-09T16:33:52;20.70;99.90
36212;DHT22;22247;48.586;13.492;2022-09-09T16:36:26;20.40;99.90
36212;DHT22;22247;48.586;13.492;2022-09-09T16:38:52;20.20;99.90
36212;DHT22;22247;48.586;13.492;2022-09-09T16:41:19;19.00;99.90
36212;DHT22;22247;48.586;13.492;2022-09-09T16:44:11;18.70;99.90
36212;DHT22;22247;48.586;13.492;2022-09-09T16:46:39;18.30;99.90
36212;DHT22;22247;48.586;13.492;2022-09-09T16:49:07;17.90;99.90
36212;DHT22;22247;48.586;13.492;2022-09-09T16:51:35;17.60;99.90
36212;DHT22;22247;48.586;13.492;2022-09-09T16:54:05;17.50;99.90
36212;DHT22;22247;48.586;13.492;2022-09-09T16:56:38;17.20;99.90
36212;DHT22;22247;48.586;13.492;2022-09-09T16:59:09;16.90;99.90
36212;DHT22;22247;48.586;13.492;2022-09-09T17:01:41;16.90;99.90
36212;DHT22;22247;48.586;13.492;2022-09-09T17:04:10;16.80;99.90
36212;DHT22;22247;48.586;13.492;2022-09-09T17:06:38;16.40;99.90
36212;DHT22;22247;48.586;13.492;2022-09-09T17:09:10;16.50;99.90
36212;DHT22;22247;48.586;13.492;2022-09-09T17:11:37;16.50;99.90
36212;DHT22;22247;48.586;13.492;2022-09-09T17:14:04;16.40;99.90
36212;DHT22;22247;48.586;13.492;2022-09-09T17:16:33;16.10;99.90
36212;DHT22;22247;48.586;13.492;2022-09-09T17:19:03;16.30;99.90
36212;DHT22;22247;48.586;13.492;2022-09-09T17:21:31;16.20;99.90
36212;DHT22;22247;48.586;13.492;2022-09-09T17:24:00;16.40;99.90
36212;DHT22;22247;48.586;13.492;2022-09-09T17:26:29;16.00;99.90
36212;DHT22;22247;48.586;13.492;2022-09-09T17:28:56;16.00;99.90
36212;DHT22;22247;48.586;13.492;2022-09-09T17:31:26;16.30;99.90
36212;DHT22;22247;48.586;13.492;2022-09-09T17:33:55;15.80;99.90
36212;DHT22;22247;48.586;13.492;2022-09-09T17:36:28;15.80;99.90
36212;DHT22;22247;48.586;13.492;2022-09-09T17:38:54;15.80;99.90
36212;DHT22;22247;48.586;13.492;2022-09-09T17:41:23;15.70;99.90
36212;DHT22;22247;48.586;13.492;2022-09-09T17:43:49;15.70;99.90
36212;DHT22;22247;48.586;13.492;2022-09-09T17:46:32;15.70;99.90
36212;DHT22;22247;48.586;13.492;2022-09-09T17:49:04;15.70;99.90
36212;DHT22;22247;48.586;13.492;2022-09-09T17:51:34;15.30;99.90
36212;DHT22;22247;48.586;13.492;2022-09-09T17:54:05;15.60;99.90
36212;DHT22;22247;48.586;13.492;2022-09-09T17:56:33;15.50;99.90
36212;DHT22;22247;48.586;13.492;2022-09-09T17:59:02;15.60;99.90
36212;DHT22;22247;48.586;13.492;2022-09-09T18:01:30;15.50;99.90
36212;DHT22;22247;48.586;13.492;2022-09-09T18:04:00;15.80;99.90
36212;DHT22;22247;48.586;13.492;2022-09-09T18:06:28;15.60;99.90
36212;DHT22;22247;48.586;13.492;2022-09-09T18:09:07;15.50;99.90
36212;DHT22;22247;48.586;13.492;2022-09-09T18:11:38;15.50;99.90
36212;DHT22;22247;48.586;13.492;2022-09-09T18:14:08;15.50;99.90
36212;DHT22;22247;48.586;13.492;2022-09-09T18:16:39;15.60;99.90
36212;DHT22;22247;48.586;13.492;2022-09-09T18:19:14;15.50;99.90
36212;DHT22;22247;48.586;13.492;2022-09-09T18:21:42;15.50;99.90
36212;DHT22;22247;48.586;13.492;2022-09-09T18:24:10;15.50;99.90
36212;DHT22;22247;48.586;13.492;2022-09-09T18:26:39;15.40;99.90
36212;DHT22;22247;48.586;13.492;2022-09-09T18:29:07;15.30;99.90
36212;DHT22;22247;48.586;13.492;2022-09-09T18:31:34;15.40;99.90
36212;DHT22;22247;48.586;13.492;2022-09-09T18:34:01;15.40;99.90
36212;DHT22;22247;48.586;13.492;2022-09-09T18:36:36;15.40;99.90
36212;DHT22;22247;48.586;13.492;2022-09-09T18:39:04;15.40;99.90
36212;DHT22;22247;48.586;13.492;2022-09-09T18:41:35;15.60;99.90
36212;DHT22;22247;48.586;13.492;2022-09-09T18:44:05;15.30;99.90
36212;DHT22;22247;48.586;13.492;2022-09-09T18:46:33;15.30;99.90
36212;DHT22;22247;48.586;13.492;2022-09-09T18:48:59;15.30;99.90